Wellington International Airport
NZWN : now visible

Airfield :











YOU CAN JOIN US ON...

 
LOGIN :

Register | Disclaimer

   EN    FR    IT 

 









Legend :    VFR   Marginal VFR   IFR   Intensive IFR   Very Intensive IFR
Visi :
Ceiling :
>= 8 km
>= 3000ft
5 to 8 km
1000 to 3000 ft
1500m to 5 km
500 to 1000 ft
800 to 1500m
200 to 500 ft
< 800m
< 200 ft
Symbols :   Thunderstorms  Fog  Heavy snow  Heavy precipitations  Wind > 20 kt






- Airport Elevation : 41 ft
- IATA code : WLG


NZWN - Wellington International

CURRENT METAR :
  • 271300Z AUTO 33016G32KT 300V360 9999 NCD 12/07 Q0996 TEMPO 6000 SHRA

EXPIRED METARs :
  • 271230Z AUTO 33016KT 300V010 9999 NCD 12/06 Q0996
  • 271200Z AUTO 34015KT 9999 FEW026/// 12/07 Q0995 TEMPO FM0030 6000 SHRA
  • 271130Z AUTO 34020KT 9999 FEW100/// 11/07 Q0996 TEMPO FM0030 6000 SHRA
  • 271100Z AUTO 34018KT 310V010 9999 -RA FEW060/// SCT070/// BKN090/// 11/07 Q0996 TEMPO 6000 SHRA FEW020TCU
  • 271030Z AUTO 33019G34KT 9999 FEW033/// 13/06 Q0997 TEMPO 6000 SHRA

TAF TAF NZWN
Valid from the 27 at 12:00 until the 28 at 12:00 UTC


271118Z 2712/2812 34020G35KT 9999 -SHRA BKN030
TEMPO 2712/2713 6000 SHRA FEW020TCU
BECMG 2723/2801 34030G45KT
BECMG 2806/2808 34015G25KT
TEMPO 2806/2809 5000 RA
NZZC FIR / Oceania



MET'MAP, your aeronautical weather chart ! - Copyright ORBIFLY December 2007 - Disclaimer

ORBIFLY MET'MAP TEAM :

Programming & Development : Alexandra Zaïnal
Concept & original design : Baudouin d'Aumeries
Assistance for programming : Marc-Olivier Méhu
Technical & hardware support : Manuel Goepfert

Contact : metmap@orbifly.com




SOURCES & CREDITS :

   NOAA       Earth
Advisory